Portada
METAR-TAF:

METAR-TAF

Aeropuertos :

Sofía, Bulgaria

Aeropuerto de Sofía

latitud: 42-39N, longitud: 023-23E, altitud: 586 m

Observación

El informe se hizo hace 18 minutos, a las 23:00 UTC
Viento 2 kt con dirección variable
Temperatura 9°C
Humedad 76%
Presión 1019 hPa
Visibilidad 10 km o más
sin nubes por debajo de 1500 m y sin presencia de cumulonimbus.

METAR: LBSF 212300Z VRB02KT CAVOK 09/05 Q1019 NOSIG

Hora: 02:18 (23:18 UTC)

Pronóstico

El informe se hizo hace 6 horas y 18 minutos, a las 17:00 UTC
Pronóstico válido del 21 a las 18 UTC al 22 a las 18 UTC
Viento 4 kt con dirección variable
Visibilidad 10 km o más
sin nubes por debajo de 1500 m y sin presencia de cumulonimbus.
Temporalmente
del 22 a las 02 UTC al 22 a las 05 UTC
Visibilidad: 5000 m
neblina
Evolucionando progresivamente
del 22 a las 09 UTC al 22 a las 11 UTC
Viento 10 kt del oeste-noroeste

TAF: LBSF 211700Z 2118/2218 VRB04KT CAVOK TEMPO 2202/2205 5000 BR NSC BECMG 2209/2211 30010KT

Observaciones y pronósticos meteorológicos de más de 4000 aeropuertos (mensajes METAR y TAF).

Los puntos amarillos y rojos representan las estaciones disponibles.

Ponga el ratón en el punto deseado para ver el nombre de la estación.

Haga clic para ver las observaciones y los pronósticos meteorológicos.

Para cambiar el mapa : haga clic en los botones verdes con una cruz de color negro para hacer un zoom, en el botón verde con un guión para alejar o en las flechas verdes para mapas adyacentes.


METAR-TAF: